createdAt,value
2018-09-17T00:01:16.568Z,8.00
2018-09-17T00:03:44.914Z,6.00
2018-09-17T00:06:13.540Z,4.43
2018-09-17T00:08:41.886Z,6.33
2018-09-17T00:11:10.304Z,6.20
2018-09-17T00:13:38.681Z,6.27
2018-09-17T00:16:07.361Z,6.63
2018-09-17T00:18:35.678Z,7.40
2018-09-17T00:21:04.436Z,4.73
2018-09-17T00:23:32.820Z,7.13
2018-09-17T00:26:01.337Z,7.23
2018-09-17T00:28:29.733Z,8.83
2018-09-17T00:30:58.103Z,8.63
2018-09-17T00:33:26.576Z,7.40
2018-09-17T00:35:54.967Z,6.97
2018-09-17T00:38:23.331Z,5.37
2018-09-17T00:40:51.655Z,5.90
2018-09-17T00:43:20.234Z,6.00
2018-09-17T00:45:48.737Z,4.93
2018-09-17T00:48:17.140Z,6.53
2018-09-17T00:50:45.567Z,9.87
2018-09-17T00:53:14.111Z,11.17
2018-09-17T00:55:42.531Z,5.10
2018-09-17T00:58:10.921Z,8.20
2018-09-17T01:00:39.714Z,7.63
2018-09-17T01:03:08.088Z,7.33
2018-09-17T01:05:36.559Z,9.90
2018-09-17T01:08:05.040Z,5.67
2018-09-17T01:10:33.423Z,7.03
2018-09-17T01:13:01.783Z,6.87
2018-09-17T01:15:30.204Z,7.90
2018-09-17T01:17:58.616Z,5.93
2018-09-17T01:20:27.006Z,5.30
2018-09-17T01:22:55.344Z,9.40
2018-09-17T01:25:23.746Z,6.73
2018-09-17T01:27:52.117Z,7.43
2018-09-17T01:30:20.700Z,8.50
2018-09-17T01:32:49.037Z,6.10
2018-09-17T01:35:17.392Z,6.27
2018-09-17T01:37:45.807Z,6.80
2018-09-17T01:40:14.164Z,5.43
2018-09-17T01:42:42.632Z,5.33
2018-09-17T01:45:11.010Z,5.57
2018-09-17T01:47:39.384Z,6.70
2018-09-17T01:50:07.911Z,6.00
2018-09-17T01:52:36.410Z,8.20
2018-09-17T01:55:04.863Z,8.90
2018-09-17T01:57:33.304Z,7.67
2018-09-17T02:00:01.653Z,6.93
2018-09-17T02:02:30.100Z,7.20
2018-09-17T02:04:58.432Z,5.80
2018-09-17T02:07:26.988Z,6.53
2018-09-17T02:09:55.963Z,6.47
2018-09-17T02:12:24.695Z,10.23
2018-09-17T02:14:53.064Z,9.00
2018-09-17T02:17:21.411Z,9.13
2018-09-17T02:19:49.754Z,7.83
2018-09-17T02:22:18.326Z,6.63
2018-09-17T02:24:47.232Z,6.60
2018-09-17T02:27:15.918Z,9.93
2018-09-17T02:29:44.400Z,6.70
2018-09-17T02:32:12.784Z,7.50
2018-09-17T02:34:41.177Z,7.80
2018-09-17T02:37:09.522Z,6.23
2018-09-17T02:39:37.882Z,7.57
2018-09-17T02:42:07.197Z,7.70
2018-09-17T02:44:35.676Z,7.67
2018-09-17T02:47:04.032Z,6.27
2018-09-17T02:49:32.448Z,8.13
2018-09-17T02:52:00.874Z,7.30
2018-09-17T02:54:29.335Z,5.83
2018-09-17T02:56:58.344Z,8.33
2018-09-17T02:59:27.317Z,7.87
2018-09-17T03:01:55.859Z,7.57
2018-09-17T03:04:24.301Z,6.70
2018-09-17T03:06:52.724Z,8.07
2018-09-17T03:09:21.129Z,7.67
2018-09-17T03:11:49.467Z,8.10
2018-09-17T03:14:24.049Z,9.17
2018-09-17T03:17:03.669Z,11.00
2018-09-17T03:19:32.056Z,15.03
2018-09-17T03:22:00.443Z,9.43
2018-09-17T03:24:28.868Z,9.50
2018-09-17T03:26:57.325Z,8.30
2018-09-17T03:29:25.827Z,9.03
2018-09-17T03:31:54.176Z,7.77
2018-09-17T03:34:22.625Z,7.17
2018-09-17T03:36:51.035Z,6.67
2018-09-17T03:39:19.416Z,8.87
2018-09-17T03:41:47.933Z,9.43
2018-09-17T03:44:16.346Z,6.63
2018-09-17T03:46:44.688Z,8.07
2018-09-17T03:49:13.036Z,8.00
2018-09-17T03:51:41.345Z,8.40
2018-09-17T03:54:09.740Z,7.73
2018-09-17T03:56:38.460Z,9.20
2018-09-17T03:59:06.770Z,8.43
2018-09-17T04:01:35.146Z,12.20
2018-09-17T04:04:03.636Z,10.27
2018-09-17T04:06:32.065Z,9.93
2018-09-17T04:09:00.375Z,6.67
2018-09-17T04:11:28.756Z,8.00
2018-09-17T04:13:57.324Z,12.90
2018-09-17T04:16:26.597Z,6.53
2018-09-17T04:18:55.385Z,11.50
2018-09-17T04:21:23.723Z,6.93
2018-09-17T04:23:52.078Z,8.77
2018-09-17T04:26:20.516Z,8.77
2018-09-17T04:28:48.888Z,8.90
2018-09-17T04:31:17.295Z,8.07
2018-09-17T04:33:45.678Z,8.57
2018-09-17T04:36:14.649Z,8.23
2018-09-17T04:38:43.037Z,8.50
2018-09-17T04:41:11.398Z,7.77
2018-09-17T04:43:40.044Z,8.27
2018-09-17T04:46:08.423Z,9.77
2018-09-17T04:48:36.851Z,9.67
2018-09-17T04:51:05.807Z,10.00
2018-09-17T04:53:34.208Z,8.13
2018-09-17T04:56:02.554Z,9.30
2018-09-17T04:58:30.943Z,6.63
2018-09-17T05:00:59.271Z,7.10
2018-09-17T05:03:27.692Z,9.63
2018-09-17T05:05:56.073Z,8.00
2018-09-17T05:08:24.503Z,7.30
2018-09-17T05:13:35.094Z,7.33
2018-09-17T05:16:03.563Z,10.67
2018-09-17T05:18:32.147Z,11.03
2018-09-17T05:21:00.524Z,15.73
2018-09-17T05:23:29.008Z,9.77
2018-09-17T05:25:57.491Z,9.90
2018-09-17T05:28:25.882Z,9.43
2018-09-17T05:30:54.313Z,11.50
2018-09-17T05:33:23.003Z,8.73
2018-09-17T05:35:51.369Z,8.17
2018-09-17T05:38:19.683Z,11.97
2018-09-17T05:40:48.116Z,12.70
2018-09-17T05:43:16.481Z,8.40
2018-09-17T05:45:44.872Z,9.10
2018-09-17T05:48:13.200Z,10.63
2018-09-17T05:50:41.551Z,8.37
2018-09-17T05:53:09.883Z,9.97
2018-09-17T05:55:38.277Z,10.67
2018-09-17T05:58:06.623Z,9.70
2018-09-17T06:00:35.125Z,9.17
2018-09-17T06:03:03.444Z,14.63
2018-09-17T06:05:31.821Z,12.67
2018-09-17T06:08:00.304Z,13.80
2018-09-17T06:10:28.662Z,15.07
2018-09-17T06:12:56.975Z,14.40
2018-09-17T06:15:25.348Z,10.10
2018-09-17T06:17:53.698Z,12.57
2018-09-17T06:20:22.069Z,11.90
2018-09-17T06:22:50.480Z,10.27
2018-09-17T06:25:18.880Z,9.07
2018-09-17T06:27:47.267Z,15.03
2018-09-17T06:30:22.278Z,12.83
2018-09-17T06:32:50.667Z,11.47
2018-09-17T06:35:18.971Z,10.43
2018-09-17T06:37:47.372Z,12.00
2018-09-17T06:40:15.714Z,11.50
2018-09-17T06:42:44.172Z,12.50
2018-09-17T06:45:12.548Z,9.67
2018-09-17T06:47:41.305Z,8.73
2018-09-17T06:50:09.661Z,15.60
2018-09-17T06:52:38.076Z,10.77
2018-09-17T06:55:06.420Z,11.27
2018-09-17T06:57:35.319Z,9.30
2018-09-17T07:00:03.752Z,10.40
2018-09-17T07:02:32.128Z,11.53
2018-09-17T07:05:00.470Z,9.43
2018-09-17T07:07:28.816Z,10.57
2018-09-17T07:09:57.168Z,9.57
2018-09-17T07:12:25.544Z,12.00
2018-09-17T07:14:53.935Z,11.50
2018-09-17T07:17:22.287Z,11.10
2018-09-17T07:19:50.687Z,14.10
2018-09-17T07:22:19.005Z,8.33
2018-09-17T07:24:47.355Z,10.13
2018-09-17T07:27:15.972Z,10.67
2018-09-17T07:29:44.721Z,9.03
2018-09-17T07:32:13.108Z,7.20
2018-09-17T07:34:42.475Z,9.57
2018-09-17T07:37:11.023Z,8.23
2018-09-17T07:39:39.411Z,7.97
2018-09-17T07:42:08.736Z,11.53
2018-09-17T07:44:37.164Z,10.23
2018-09-17T07:47:05.708Z,12.88
2018-09-17T07:49:34.003Z,12.57
2018-09-17T07:52:02.299Z,14.67
2018-09-17T07:54:30.620Z,20.70
2018-09-17T07:56:59.187Z,9.57
2018-09-17T07:59:27.771Z,19.43
2018-09-17T08:01:56.160Z,15.03
2018-09-17T08:04:31.943Z,12.10
2018-09-17T08:07:00.238Z,10.73
2018-09-17T08:09:28.660Z,17.07
2018-09-17T08:11:57.061Z,12.90
2018-09-17T08:14:25.447Z,8.17
2018-09-17T08:16:53.870Z,13.73
2018-09-17T08:19:22.330Z,13.10
2018-09-17T08:21:50.721Z,14.90
2018-09-17T08:24:19.134Z,10.60
2018-09-17T08:26:47.698Z,12.00
2018-09-17T08:29:16.061Z,13.90
2018-09-17T08:31:44.375Z,10.63
2018-09-17T08:34:12.716Z,11.03
2018-09-17T08:36:41.021Z,11.00
2018-09-17T08:39:12.275Z,13.60
2018-09-17T08:41:41.152Z,10.27
2018-09-17T08:44:10.307Z,16.43
2018-09-17T08:46:40.774Z,14.27
2018-09-17T08:49:09.199Z,11.07
2018-09-17T08:51:37.957Z,12.57
2018-09-17T08:54:06.436Z,11.13
2018-09-17T08:56:40.059Z,12.40
2018-09-17T08:59:13.904Z,12.47
2018-09-17T09:01:47.895Z,14.33
2018-09-17T09:04:21.681Z,12.83
2018-09-17T09:07:00.055Z,12.13
2018-09-17T09:09:28.511Z,10.60
2018-09-17T09:11:59.830Z,11.00
2018-09-17T09:14:33.645Z,10.13
2018-09-17T09:17:02.006Z,15.40
2018-09-17T09:19:30.387Z,13.10
2018-09-17T09:21:58.708Z,14.60
2018-09-17T09:24:27.044Z,13.47
2018-09-17T09:26:55.436Z,10.00
2018-09-17T09:29:23.791Z,11.20
2018-09-17T09:31:52.222Z,10.60
2018-09-17T09:34:20.560Z,12.37
2018-09-17T09:36:49.036Z,16.83
2018-09-17T09:39:17.348Z,15.20
2018-09-17T09:41:45.701Z,12.13
2018-09-17T09:44:14.035Z,9.93
2018-09-17T09:46:42.388Z,8.93
2018-09-17T09:49:10.710Z,13.77
2018-09-17T09:51:39.032Z,11.83
2018-09-17T09:54:10.444Z,20.40
2018-09-17T09:57:43.231Z,21.67
2018-09-17T10:00:17.689Z,12.97
2018-09-17T10:02:52.302Z,16.17
2018-09-17T10:05:21.078Z,15.33
2018-09-17T10:07:49.868Z,13.50
2018-09-17T10:10:23.900Z,23.47
2018-09-17T10:12:57.941Z,14.40
2018-09-17T10:15:31.854Z,10.20
2018-09-17T10:18:05.732Z,11.23
2018-09-17T10:20:34.476Z,11.50
2018-09-17T10:23:02.774Z,11.13
2018-09-17T10:25:31.111Z,13.33
2018-09-17T10:27:59.519Z,12.67
2018-09-17T10:30:27.912Z,14.18
2018-09-17T10:33:03.184Z,12.80
2018-09-17T10:35:33.252Z,12.60
2018-09-17T10:38:01.631Z,18.10
2018-09-17T10:40:30.180Z,11.10
2018-09-17T10:42:58.575Z,10.77
2018-09-17T10:45:28.059Z,8.93
2018-09-17T10:47:56.396Z,7.03
2018-09-17T10:50:24.792Z,13.27
2018-09-17T10:52:53.310Z,21.63
2018-09-17T10:55:21.881Z,17.93
2018-09-17T10:57:50.240Z,13.10
2018-09-17T11:00:18.719Z,7.30
2018-09-17T11:02:47.201Z,10.07
2018-09-17T11:05:15.611Z,9.20
2018-09-17T11:07:44.032Z,12.17
2018-09-17T11:10:12.444Z,9.30
2018-09-17T11:12:40.903Z,8.57
2018-09-17T11:15:09.290Z,10.80
2018-09-17T11:17:37.871Z,10.67
2018-09-17T11:20:06.242Z,6.83
2018-09-17T11:22:34.680Z,7.60
2018-09-17T11:25:03.063Z,6.63
2018-09-17T11:27:31.597Z,8.73
2018-09-17T11:29:59.944Z,9.87
2018-09-17T11:32:28.388Z,28.50
2018-09-17T11:34:56.711Z,12.93
2018-09-17T11:37:25.038Z,10.07
2018-09-17T11:39:53.360Z,11.50
2018-09-17T11:42:21.719Z,6.80
2018-09-17T11:44:50.048Z,5.43
2018-09-17T11:47:18.537Z,13.47
2018-09-17T11:49:46.896Z,6.07
2018-09-17T11:52:15.263Z,11.80
2018-09-17T11:54:43.656Z,6.93
2018-09-17T11:57:11.980Z,9.10
2018-09-17T11:59:40.359Z,8.60
2018-09-17T12:02:14.245Z,11.33
2018-09-17T12:04:47.927Z,7.17
2018-09-17T12:07:21.679Z,8.17
2018-09-17T12:09:50.091Z,6.67
2018-09-17T12:12:18.443Z,6.63
2018-09-17T12:14:46.754Z,8.47
2018-09-17T12:17:15.080Z,9.60
2018-09-17T12:19:43.423Z,5.80
2018-09-17T12:22:11.771Z,6.83
2018-09-17T12:24:40.462Z,7.67
2018-09-17T12:27:08.963Z,6.57
2018-09-17T12:29:37.443Z,7.27
2018-09-17T12:32:05.808Z,4.37
2018-09-17T12:34:35.006Z,5.30
2018-09-17T12:37:03.426Z,6.67
2018-09-17T12:39:32.024Z,6.60
2018-09-17T12:42:00.404Z,19.10
2018-09-17T12:44:28.752Z,7.40
2018-09-17T12:46:57.089Z,6.27
2018-09-17T12:49:25.451Z,5.40
2018-09-17T12:51:53.789Z,6.27
2018-09-17T12:54:22.159Z,4.60
2018-09-17T12:56:50.499Z,5.10
2018-09-17T12:59:18.855Z,5.83
2018-09-17T13:01:47.199Z,6.63
2018-09-17T13:04:15.563Z,6.23
2018-09-17T13:06:43.870Z,5.43
2018-09-17T13:09:12.483Z,4.50
2018-09-17T13:11:41.349Z,4.83
2018-09-17T13:14:09.702Z,4.23
2018-09-17T13:16:38.932Z,5.47
2018-09-17T13:19:08.647Z,5.87
2018-09-17T13:21:36.987Z,6.47
2018-09-17T13:24:06.075Z,5.33
2018-09-17T13:26:34.400Z,7.90
2018-09-17T13:29:03.076Z,5.97
2018-09-17T13:31:31.792Z,6.23
2018-09-17T13:34:00.137Z,5.60
2018-09-17T13:36:29.120Z,5.00
2018-09-17T13:38:57.678Z,5.60
2018-09-17T13:41:26.120Z,5.87
2018-09-17T13:43:54.612Z,7.67
2018-09-17T13:46:22.944Z,5.63
2018-09-17T13:48:51.251Z,4.53
2018-09-17T13:51:19.820Z,6.97
2018-09-17T13:53:48.136Z,7.80
2018-09-17T13:56:17.219Z,5.77
2018-09-17T13:58:46.148Z,5.23
2018-09-17T14:01:14.535Z,15.57
2018-09-17T14:03:42.907Z,9.30
2018-09-17T14:06:11.270Z,9.30
2018-09-17T14:08:39.718Z,3.67
2018-09-17T14:11:09.460Z,5.77
2018-09-17T14:13:38.157Z,5.73
2018-09-17T14:16:09.057Z,5.83
2018-09-17T14:21:16.734Z,4.15
2018-09-17T14:23:45.096Z,3.67
2018-09-17T14:26:13.538Z,5.00
2018-09-17T14:28:42.059Z,4.97
2018-09-17T14:31:10.448Z,4.17
2018-09-17T14:33:39.923Z,6.05
2018-09-17T14:36:08.231Z,5.47
2018-09-17T14:38:36.647Z,3.55
2018-09-17T14:41:05.002Z,5.78
2018-09-17T14:43:33.433Z,3.35
2018-09-17T14:46:03.839Z,4.03
2018-09-17T14:48:34.131Z,5.28
2018-09-17T14:51:02.550Z,3.33
2018-09-17T14:53:30.976Z,5.85
2018-09-17T14:55:59.272Z,3.45
2018-09-17T14:58:27.710Z,2.45
2018-09-17T15:00:55.963Z,3.02
2018-09-17T15:03:24.294Z,4.05
2018-09-17T15:05:52.643Z,4.65
2018-09-17T15:08:21.008Z,2.45
2018-09-17T15:10:49.328Z,8.85
2018-09-17T15:13:17.742Z,3.67
2018-09-17T15:15:46.715Z,4.10
2018-09-17T15:18:15.914Z,7.15
2018-09-17T15:20:44.339Z,5.10
2018-09-17T15:23:12.699Z,5.95
2018-09-17T15:25:40.997Z,3.65
2018-09-17T15:28:09.431Z,3.55
2018-09-17T15:30:37.689Z,5.75
2018-09-17T15:33:06.095Z,5.15
2018-09-17T15:35:34.401Z,4.70
2018-09-17T15:38:02.870Z,2.85
2018-09-17T15:40:31.293Z,2.95
2018-09-17T15:42:59.555Z,2.75
2018-09-17T15:45:27.952Z,3.37
2018-09-17T15:47:56.341Z,5.40
2018-09-17T15:50:24.709Z,3.52
2018-09-17T15:52:53.139Z,3.00
2018-09-17T15:55:21.543Z,3.33
2018-09-17T15:57:49.956Z,6.22
2018-09-17T16:02:59.658Z,4.35
2018-09-17T16:05:27.907Z,3.08
2018-09-17T16:07:56.203Z,4.35
2018-09-17T16:10:24.549Z,3.05
2018-09-17T16:12:53.085Z,3.52
2018-09-17T16:15:21.431Z,3.35
2018-09-17T16:17:51.801Z,6.70
2018-09-17T16:20:20.802Z,12.03
2018-09-17T16:22:49.307Z,5.50
2018-09-17T16:25:17.690Z,3.30
2018-09-17T16:27:45.981Z,4.85
2018-09-17T16:30:14.348Z,3.60
2018-09-17T16:32:42.637Z,4.97
2018-09-17T16:35:11.013Z,3.70
2018-09-17T16:37:39.333Z,3.65
2018-09-17T16:40:07.824Z,5.67
2018-09-17T16:42:36.149Z,4.65
2018-09-17T16:45:04.487Z,3.83
2018-09-17T16:47:32.808Z,4.25
2018-09-17T16:50:01.258Z,5.63
2018-09-17T16:52:29.606Z,5.10
2018-09-17T16:54:57.983Z,4.73
2018-09-17T16:57:26.556Z,4.10
2018-09-17T16:59:55.091Z,3.47
2018-09-17T17:02:23.288Z,4.23
2018-09-17T17:04:51.762Z,4.47
2018-09-17T17:07:20.045Z,4.37
2018-09-17T17:09:48.446Z,8.53
2018-09-17T17:12:16.788Z,8.40
2018-09-17T17:14:45.104Z,8.93
2018-09-17T17:17:13.423Z,6.10
2018-09-17T17:19:41.783Z,8.37
2018-09-17T17:22:10.204Z,13.63
2018-09-17T17:24:38.530Z,9.30
2018-09-17T17:27:06.863Z,12.67
2018-09-17T17:29:35.148Z,9.67
2018-09-17T17:32:03.534Z,7.60
2018-09-17T17:34:31.826Z,9.20
2018-09-17T17:37:00.147Z,10.53
2018-09-17T17:39:28.472Z,9.73
2018-09-17T17:41:56.808Z,9.17
2018-09-17T17:44:31.655Z,9.23
2018-09-17T17:46:59.956Z,11.73
2018-09-17T17:49:28.389Z,9.63
2018-09-17T17:51:56.807Z,9.80
2018-09-17T17:54:25.186Z,8.57
2018-09-17T17:56:53.457Z,8.70
2018-09-17T17:59:21.745Z,9.93
2018-09-17T18:01:50.038Z,13.23
2018-09-17T18:04:18.419Z,10.07
2018-09-17T18:06:46.836Z,10.63
2018-09-17T18:09:15.057Z,19.53
2018-09-17T18:11:43.420Z,14.50
2018-09-17T18:14:11.737Z,12.63
2018-09-17T18:16:40.082Z,18.77
2018-09-17T18:19:08.412Z,18.17
2018-09-17T18:21:36.737Z,12.83
2018-09-17T18:24:05.024Z,43.40
2018-09-17T18:26:33.455Z,23.23
2018-09-17T18:29:01.808Z,21.27
2018-09-17T18:31:30.214Z,18.33
2018-09-17T18:33:58.543Z,23.80
2018-09-17T18:36:26.963Z,22.33
2018-09-17T18:38:55.353Z,18.57
2018-09-17T18:41:23.642Z,20.63
2018-09-17T18:43:51.956Z,16.17
2018-09-17T18:46:20.261Z,16.67
2018-09-17T18:48:48.608Z,18.17
2018-09-17T18:51:16.998Z,18.13
2018-09-17T18:53:45.374Z,14.10
2018-09-17T18:56:13.652Z,16.00
2018-09-17T18:58:41.975Z,17.20
2018-09-17T19:01:10.327Z,13.73
2018-09-17T19:03:38.758Z,15.60
2018-09-17T19:06:07.284Z,15.53
2018-09-17T19:08:35.849Z,14.23
2018-09-17T19:11:11.206Z,17.50
2018-09-17T19:13:39.571Z,20.50
2018-09-17T19:16:07.959Z,15.57
2018-09-17T19:18:36.440Z,17.07
2018-09-17T19:21:04.903Z,12.63
2018-09-17T19:23:38.768Z,16.87
2018-09-17T19:26:07.193Z,17.07
2018-09-17T19:28:41.708Z,15.33
2018-09-17T19:31:11.891Z,16.97
2018-09-17T19:33:40.281Z,20.53
2018-09-17T19:36:08.747Z,13.43
2018-09-17T19:38:42.500Z,13.43
2018-09-17T19:41:10.928Z,17.83
2018-09-17T19:43:39.288Z,14.73
2018-09-17T19:46:13.350Z,14.50
2018-09-17T19:48:41.592Z,13.67
2018-09-17T19:51:15.303Z,15.67
2018-09-17T19:53:44.302Z,16.60
2018-09-17T19:56:12.878Z,17.90
2018-09-17T19:58:46.635Z,21.97
2018-09-17T20:01:15.183Z,18.57
2018-09-17T20:03:43.740Z,16.07
2018-09-17T20:06:17.479Z,15.03
2018-09-17T20:08:46.204Z,16.23
2018-09-17T20:11:14.602Z,15.60
2018-09-17T20:13:42.960Z,12.83
2018-09-17T20:16:11.400Z,14.37
2018-09-17T20:18:39.752Z,13.60
2018-09-17T20:21:08.080Z,15.00
2018-09-17T20:23:37.534Z,15.13
2018-09-17T20:26:06.043Z,13.07
2018-09-17T20:28:34.998Z,11.37
2018-09-17T20:31:03.903Z,14.97
2018-09-17T20:33:33.913Z,15.90
2018-09-17T20:36:02.235Z,18.83
2018-09-17T20:38:30.915Z,13.67
2018-09-17T20:40:59.546Z,11.13
2018-09-17T20:43:28.831Z,14.20
2018-09-17T20:45:57.144Z,12.37
2018-09-17T20:48:26.442Z,12.25
2018-09-17T20:50:54.897Z,11.47
2018-09-17T20:53:23.876Z,12.73
2018-09-17T20:55:52.477Z,15.00
2018-09-17T20:58:20.837Z,15.87
2018-09-17T21:00:49.242Z,18.67
2018-09-17T21:03:17.558Z,12.80
2018-09-17T21:05:45.882Z,19.80
2018-09-17T21:08:15.459Z,12.57
2018-09-17T21:10:44.703Z,10.90
2018-09-17T21:13:15.145Z,15.53
2018-09-17T21:15:45.826Z,11.77
2018-09-17T21:18:16.104Z,8.80
2018-09-17T21:20:44.447Z,9.20
2018-09-17T21:23:13.765Z,12.97
2018-09-17T21:25:43.847Z,15.30
2018-09-17T21:28:12.170Z,14.47
2018-09-17T21:30:41.319Z,11.97
2018-09-17T21:33:09.715Z,9.63
2018-09-17T21:35:38.137Z,11.03
2018-09-17T21:38:06.467Z,11.13
2018-09-17T21:40:34.825Z,10.43
2018-09-17T21:43:03.166Z,16.23
2018-09-17T21:45:32.900Z,9.40
2018-09-17T21:48:01.314Z,12.77
2018-09-17T21:50:30.879Z,12.27
2018-09-17T21:52:59.323Z,13.40
2018-09-17T21:55:27.634Z,12.03
2018-09-17T21:57:55.969Z,12.10
2018-09-17T22:00:25.574Z,9.40
2018-09-17T22:02:53.912Z,16.73
2018-09-17T22:05:22.253Z,11.03
2018-09-17T22:07:53.279Z,11.37
2018-09-17T22:10:21.599Z,10.73
2018-09-17T22:12:49.986Z,9.93
2018-09-17T22:15:19.284Z,9.50
2018-09-17T22:17:48.091Z,9.67
2018-09-17T22:20:17.992Z,12.73
2018-09-17T22:22:48.007Z,11.07
2018-09-17T22:25:18.070Z,10.60
2018-09-17T22:27:47.353Z,8.27
2018-09-17T22:30:16.560Z,8.40
2018-09-17T22:32:44.906Z,8.97
2018-09-17T22:35:15.736Z,8.53
2018-09-17T22:37:44.798Z,9.97
2018-09-17T22:40:13.163Z,17.13
2018-09-17T22:42:42.620Z,13.63
2018-09-17T22:45:12.767Z,10.87
2018-09-17T22:47:42.226Z,9.13
2018-09-17T22:50:12.188Z,7.67
2018-09-17T22:52:41.545Z,18.13
2018-09-17T22:55:09.929Z,10.97
2018-09-17T22:57:39.936Z,10.20
2018-09-17T23:00:09.465Z,10.27
2018-09-17T23:02:37.863Z,13.20
2018-09-17T23:05:06.820Z,9.83
2018-09-17T23:07:36.236Z,9.73
2018-09-17T23:10:06.573Z,9.37
2018-09-17T23:12:35.846Z,7.53
2018-09-17T23:15:05.356Z,11.57
2018-09-17T23:17:34.951Z,7.50
2018-09-17T23:20:03.304Z,8.63
2018-09-17T23:22:32.475Z,13.63
2018-09-17T23:25:01.837Z,12.60
2018-09-17T23:27:31.424Z,8.37
2018-09-17T23:30:01.732Z,9.00
2018-09-17T23:32:30.866Z,13.40
2018-09-17T23:35:02.189Z,11.43
2018-09-17T23:37:31.210Z,9.70
2018-09-17T23:40:00.555Z,10.43
2018-09-17T23:42:30.088Z,12.00
2018-09-17T23:44:59.152Z,8.97
2018-09-17T23:47:28.407Z,11.03
2018-09-17T23:49:57.816Z,10.23
2018-09-17T23:52:27.304Z,10.87
2018-09-17T23:54:56.674Z,10.17
2018-09-17T23:57:25.885Z,8.87
2018-09-17T23:59:55.162Z,7.43
